createdAt,value
2022-10-17T00:00:31.275Z,80.00
2022-10-17T00:01:32.843Z,79.87
2022-10-17T00:02:34.310Z,79.65
2022-10-17T00:03:37.745Z,79.96
2022-10-17T00:04:39.295Z,79.96
2022-10-17T00:05:42.936Z,79.82
2022-10-17T00:06:44.415Z,79.67
2022-10-17T00:07:45.844Z,79.54
2022-10-17T00:08:47.577Z,79.77
2022-10-17T00:09:48.954Z,79.87
2022-10-17T00:10:59.219Z,79.59
2022-10-17T00:12:02.558Z,80.09
2022-10-17T00:13:04.563Z,80.04
2022-10-17T00:14:06.550Z,79.98
2022-10-17T00:15:08.994Z,80.18
2022-10-17T00:16:10.542Z,79.95
2022-10-17T00:17:11.963Z,79.91
2022-10-17T00:18:13.382Z,79.77
2022-10-17T00:19:15.116Z,79.77
2022-10-17T00:20:17.692Z,79.96
2022-10-17T00:21:20.539Z,80.28
2022-10-17T00:22:21.954Z,80.39
2022-10-17T00:23:24.026Z,80.26
2022-10-17T00:24:25.857Z,80.32
2022-10-17T00:25:27.422Z,80.32
2022-10-17T00:26:29.674Z,80.08
2022-10-17T00:27:35.546Z,80.01
2022-10-17T00:28:37.327Z,80.17
2022-10-17T00:29:38.741Z,80.41
2022-10-17T00:30:40.230Z,79.95
2022-10-17T00:31:41.854Z,79.90
2022-10-17T00:32:43.386Z,79.66
2022-10-17T00:33:45.620Z,79.73
2022-10-17T00:34:47.084Z,79.91
2022-10-17T00:35:48.481Z,79.89
2022-10-17T00:36:49.968Z,79.79
2022-10-17T00:37:51.366Z,79.66
2022-10-17T00:38:58.899Z,79.43
2022-10-17T00:40:00.603Z,79.64
2022-10-17T00:41:02.756Z,79.89
2022-10-17T00:42:04.304Z,79.42
2022-10-17T00:43:15.006Z,79.91
2022-10-17T00:44:32.053Z,79.71
2022-10-17T00:45:33.483Z,79.95
2022-10-17T00:46:39.255Z,80.10
2022-10-17T00:47:42.105Z,80.10
2022-10-17T00:48:44.641Z,80.11
2022-10-17T00:49:46.102Z,80.07
2022-10-17T00:50:49.577Z,80.13
2022-10-17T00:51:53.969Z,80.08
2022-10-17T00:52:58.849Z,79.92
2022-10-17T00:54:01.768Z,80.04
2022-10-17T00:55:09.288Z,80.13
2022-10-17T00:56:11.469Z,80.10
2022-10-17T00:57:13.950Z,80.73
2022-10-17T00:58:16.825Z,79.85
2022-10-17T00:59:20.120Z,80.00
2022-10-17T01:00:22.255Z,80.34
2022-10-17T01:01:23.812Z,80.21
2022-10-17T01:02:25.583Z,80.04
2022-10-17T01:03:27.546Z,80.00
2022-10-17T01:04:28.991Z,80.08
2022-10-17T01:05:30.733Z,80.09
2022-10-17T01:06:32.729Z,80.02
2022-10-17T01:07:37.212Z,80.24
2022-10-17T01:08:39.467Z,80.44
2022-10-17T01:09:43.140Z,80.13
2022-10-17T01:10:44.493Z,80.24
2022-10-17T01:11:53.862Z,80.39
2022-10-17T01:13:08.398Z,80.43
2022-10-17T01:14:25.149Z,80.20
2022-10-17T01:15:53.980Z,80.09
2022-10-17T01:17:01.213Z,80.34
2022-10-17T01:18:18.881Z,80.27
2022-10-17T01:19:31.569Z,80.10
2022-10-17T01:20:59.965Z,79.93
2022-10-17T01:22:21.839Z,80.14
2022-10-17T01:23:30.681Z,80.22
2022-10-17T01:24:57.418Z,80.37
2022-10-17T01:26:12.530Z,79.94
2022-10-17T01:27:13.840Z,80.12
2022-10-17T01:28:21.812Z,80.11
2022-10-17T01:30:03.730Z,80.51
2022-10-17T01:31:10.939Z,80.46
2022-10-17T01:32:19.902Z,80.52
2022-10-17T01:33:31.013Z,80.66
2022-10-17T01:34:39.320Z,81.02
2022-10-17T01:35:52.609Z,80.44
2022-10-17T01:37:03.664Z,80.45
2022-10-17T01:38:10.739Z,80.36
2022-10-17T01:39:28.096Z,80.49
2022-10-17T01:40:42.169Z,80.30
2022-10-17T01:42:06.996Z,80.80
2022-10-17T01:43:15.063Z,80.86
2022-10-17T01:44:41.138Z,80.95
2022-10-17T01:45:52.808Z,80.81
2022-10-17T01:47:03.713Z,80.93
2022-10-17T01:48:09.272Z,80.83
2022-10-17T01:49:14.504Z,80.42
2022-10-17T01:50:20.232Z,81.14
2022-10-17T01:51:28.395Z,80.75
2022-10-17T01:52:45.353Z,80.97
2022-10-17T01:54:10.282Z,80.93
2022-10-17T01:55:18.482Z,80.58
2022-10-17T01:56:22.822Z,80.76
2022-10-17T01:57:31.019Z,80.66
2022-10-17T01:58:40.689Z,80.83
2022-10-17T01:59:47.608Z,80.69
2022-10-17T02:00:50.422Z,80.49
2022-10-17T02:01:55.195Z,80.67
2022-10-17T02:03:00.517Z,80.45
2022-10-17T02:04:04.321Z,80.62
2022-10-17T02:05:06.507Z,80.58
2022-10-17T02:06:08.005Z,80.65
2022-10-17T02:07:11.920Z,80.36
2022-10-17T02:08:14.550Z,80.68
2022-10-17T02:09:21.995Z,79.97
2022-10-17T02:10:37.159Z,80.43
2022-10-17T02:11:38.494Z,80.55
2022-10-17T02:12:55.313Z,80.59
2022-10-17T02:14:24.930Z,80.86
2022-10-17T02:15:38.825Z,81.02
2022-10-17T02:17:17.449Z,81.00
2022-10-17T02:18:27.822Z,80.81
2022-10-17T02:19:54.607Z,80.86
2022-10-17T02:21:18.824Z,80.55
2022-10-17T02:22:41.871Z,80.74
2022-10-17T02:24:00.270Z,80.78
2022-10-17T02:25:15.477Z,81.01
2022-10-17T02:26:30.470Z,81.25
2022-10-17T02:27:44.309Z,81.20
2022-10-17T02:29:04.943Z,81.20
2022-10-17T02:30:16.268Z,80.91
2022-10-17T02:31:22.783Z,81.02
2022-10-17T02:32:46.603Z,80.63
2022-10-17T02:33:59.757Z,80.97
2022-10-17T02:35:03.802Z,80.87
2022-10-17T02:36:11.879Z,81.08
2022-10-17T02:37:15.949Z,80.89
2022-10-17T02:38:18.743Z,80.90
2022-10-17T02:39:23.699Z,80.95
2022-10-17T02:40:27.816Z,80.75
2022-10-17T02:41:30.242Z,80.64
2022-10-17T02:42:33.120Z,81.05
2022-10-17T02:43:36.262Z,80.97
2022-10-17T02:44:40.237Z,80.76
2022-10-17T02:45:41.863Z,80.54
2022-10-17T02:46:47.813Z,80.47
2022-10-17T02:48:02.291Z,80.54
2022-10-17T02:49:24.786Z,80.12
2022-10-17T02:50:53.723Z,80.54
2022-10-17T02:52:03.730Z,80.19
2022-10-17T02:53:11.895Z,80.50
2022-10-17T02:54:26.436Z,80.40
2022-10-17T02:55:39.909Z,80.12
2022-10-17T02:56:52.972Z,80.29
2022-10-17T02:58:08.805Z,80.67
2022-10-17T02:59:15.697Z,80.66
2022-10-17T03:00:18.980Z,80.40
2022-10-17T03:01:21.349Z,80.56
2022-10-17T03:02:22.859Z,80.57
2022-10-17T03:03:30.306Z,80.34
2022-10-17T03:04:32.337Z,80.25
2022-10-17T03:05:33.771Z,80.24
2022-10-17T03:06:35.222Z,80.13
2022-10-17T03:07:36.681Z,80.05
2022-10-17T03:09:39.832Z,80.37
2022-10-17T03:10:41.348Z,80.10
2022-10-17T03:11:42.774Z,80.41
2022-10-17T03:12:44.566Z,80.72
2022-10-17T03:13:46.005Z,80.54
2022-10-17T03:14:47.444Z,80.25
2022-10-17T03:15:48.920Z,80.09
2022-10-17T03:16:50.355Z,80.23
2022-10-17T03:17:52.063Z,80.24
2022-10-17T03:18:53.545Z,80.17
2022-10-17T03:19:55.323Z,80.53
2022-10-17T03:20:56.741Z,80.32
2022-10-17T03:21:58.183Z,80.27
2022-10-17T03:23:00.001Z,80.10
2022-10-17T03:24:01.447Z,80.49
2022-10-17T03:25:03.326Z,80.57
2022-10-17T03:26:06.000Z,80.25
2022-10-17T03:27:07.448Z,80.14
2022-10-17T03:28:09.629Z,80.24
2022-10-17T03:29:11.446Z,80.14
2022-10-17T03:30:13.048Z,80.06
2022-10-17T03:31:16.634Z,80.11
2022-10-17T03:32:18.349Z,79.83
2022-10-17T03:33:19.755Z,80.01
2022-10-17T03:34:21.662Z,80.38
2022-10-17T03:35:23.082Z,80.46
2022-10-17T03:36:24.502Z,80.38
2022-10-17T03:37:26.071Z,80.44
2022-10-17T03:38:27.644Z,80.14
2022-10-17T03:39:29.383Z,79.97
2022-10-17T03:40:30.800Z,80.26
2022-10-17T03:41:32.210Z,80.21
2022-10-17T03:42:33.681Z,80.53
2022-10-17T03:43:35.288Z,80.65
2022-10-17T03:44:37.036Z,80.51
2022-10-17T03:45:38.450Z,80.60
2022-10-17T03:46:39.989Z,80.23
2022-10-17T03:47:41.419Z,80.26
2022-10-17T03:48:42.846Z,80.32
2022-10-17T03:49:44.634Z,80.20
2022-10-17T03:50:46.083Z,79.84
2022-10-17T03:51:47.478Z,79.98
2022-10-17T03:52:49.558Z,80.22
2022-10-17T03:53:51.036Z,80.65
2022-10-17T03:54:52.823Z,80.57
2022-10-17T03:55:54.467Z,80.72
2022-10-17T03:58:02.232Z,80.21
2022-10-17T03:59:04.021Z,80.01
2022-10-17T04:00:06.779Z,79.95
2022-10-17T04:01:10.934Z,80.16
2022-10-17T04:02:12.455Z,80.20
2022-10-17T04:03:17.154Z,80.41
2022-10-17T04:04:19.302Z,80.09
2022-10-17T04:05:20.746Z,79.79
2022-10-17T04:06:22.800Z,80.30
2022-10-17T04:07:24.252Z,80.28
2022-10-17T04:08:26.511Z,80.09
2022-10-17T04:09:27.909Z,80.47
2022-10-17T04:10:29.660Z,80.80
2022-10-17T04:11:31.154Z,80.32
2022-10-17T04:12:32.666Z,80.27
2022-10-17T04:13:35.026Z,80.43
2022-10-17T04:14:37.911Z,80.61
2022-10-17T04:15:39.256Z,80.69
2022-10-17T04:16:40.605Z,80.36
2022-10-17T04:17:41.910Z,80.58
2022-10-17T04:18:43.664Z,80.36
2022-10-17T04:19:45.418Z,80.24
2022-10-17T04:20:46.836Z,80.33
2022-10-17T04:21:48.524Z,80.43
2022-10-17T04:22:49.950Z,80.42
2022-10-17T04:23:56.224Z,80.67
2022-10-17T04:24:57.987Z,80.48
2022-10-17T04:26:00.794Z,80.80
2022-10-17T04:27:02.291Z,80.71
2022-10-17T04:28:03.865Z,80.79
2022-10-17T04:29:05.282Z,80.56
2022-10-17T04:30:07.676Z,80.85
2022-10-17T04:31:12.520Z,80.85
2022-10-17T04:32:14.157Z,80.72
2022-10-17T04:33:15.556Z,80.74
2022-10-17T04:34:17.291Z,80.57
2022-10-17T04:35:18.769Z,80.68
2022-10-17T04:36:20.765Z,80.88
2022-10-17T04:37:22.269Z,80.59
2022-10-17T04:38:27.692Z,80.43
2022-10-17T04:39:30.534Z,80.37
2022-10-17T04:40:32.029Z,80.80
2022-10-17T04:41:33.456Z,80.32
2022-10-17T04:42:34.906Z,80.26
2022-10-17T04:43:38.001Z,80.41
2022-10-17T04:44:39.814Z,80.06
2022-10-17T04:45:41.242Z,80.22
2022-10-17T04:46:42.682Z,79.94
2022-10-17T04:47:44.162Z,79.93
2022-10-17T04:48:45.624Z,79.77
2022-10-17T04:49:47.457Z,79.15
2022-10-17T04:51:00.559Z,79.28
2022-10-17T04:52:02.000Z,78.99
2022-10-17T04:53:03.482Z,79.17
2022-10-17T04:54:05.594Z,79.24
2022-10-17T04:55:07.549Z,79.08
2022-10-17T04:56:14.226Z,79.22
2022-10-17T04:57:15.728Z,79.22
2022-10-17T04:58:17.558Z,79.50
2022-10-17T04:59:19.369Z,79.44
2022-10-17T05:00:20.796Z,79.69
2022-10-17T05:01:24.026Z,79.92
2022-10-17T05:02:25.571Z,79.86
2022-10-17T05:03:27.323Z,80.15
2022-10-17T05:04:28.788Z,79.88
2022-10-17T05:05:30.991Z,80.21
2022-10-17T05:06:33.602Z,79.99
2022-10-17T05:07:35.069Z,79.57
2022-10-17T05:08:37.128Z,79.63
2022-10-17T05:09:38.545Z,79.80
2022-10-17T05:10:42.123Z,79.45
2022-10-17T05:11:43.640Z,79.89
2022-10-17T05:12:47.461Z,79.25
2022-10-17T05:13:54.332Z,79.47
2022-10-17T05:14:56.121Z,79.87
2022-10-17T05:16:01.698Z,80.08
2022-10-17T05:17:03.190Z,80.05
2022-10-17T05:18:05.770Z,80.21
2022-10-17T05:19:07.589Z,80.20
2022-10-17T05:20:09.593Z,80.37
2022-10-17T05:21:11.034Z,80.78
2022-10-17T05:22:12.521Z,80.37
2022-10-17T05:23:13.952Z,80.47
2022-10-17T05:24:15.870Z,80.63
2022-10-17T05:25:17.349Z,80.26
2022-10-17T05:26:18.944Z,80.29
2022-10-17T05:27:20.366Z,80.30
2022-10-17T05:28:22.711Z,80.51
2022-10-17T05:29:24.199Z,80.41
2022-10-17T05:30:25.740Z,80.64
2022-10-17T05:31:27.147Z,80.48
2022-10-17T05:32:28.792Z,80.46
2022-10-17T05:33:30.480Z,80.16
2022-10-17T05:34:34.644Z,79.96
2022-10-17T05:35:36.112Z,79.90
2022-10-17T05:36:37.538Z,80.12
2022-10-17T05:37:39.100Z,80.21
2022-10-17T05:38:40.579Z,79.97
2022-10-17T05:39:42.356Z,79.89
2022-10-17T05:40:43.801Z,79.77
2022-10-17T05:41:46.412Z,79.93
2022-10-17T05:42:49.360Z,79.85
2022-10-17T05:43:51.150Z,80.11
2022-10-17T05:44:52.628Z,79.97
2022-10-17T05:45:54.803Z,79.86
2022-10-17T05:46:56.235Z,79.76
2022-10-17T05:47:57.697Z,79.86
2022-10-17T05:48:59.659Z,79.70
2022-10-17T05:50:01.099Z,79.71
2022-10-17T05:51:06.225Z,80.24
2022-10-17T05:52:07.872Z,80.45
2022-10-17T05:53:09.426Z,79.99
2022-10-17T05:54:11.223Z,80.35
2022-10-17T05:55:16.081Z,80.18
2022-10-17T05:56:20.375Z,79.70
2022-10-17T05:57:25.376Z,79.56
2022-10-17T05:59:49.247Z,79.31
2022-10-17T06:00:50.690Z,79.40
2022-10-17T06:01:53.439Z,79.44
2022-10-17T06:02:54.931Z,79.52
2022-10-17T06:03:57.106Z,79.74
2022-10-17T06:04:58.668Z,79.70
2022-10-17T06:06:11.740Z,79.97
2022-10-17T06:07:13.344Z,80.27
2022-10-17T06:08:14.777Z,79.97
2022-10-17T06:09:16.343Z,80.40
2022-10-17T06:10:18.679Z,80.51
2022-10-17T06:11:20.161Z,80.23
2022-10-17T06:12:21.594Z,80.30
2022-10-17T06:13:23.042Z,80.53
2022-10-17T06:14:24.520Z,80.22
2022-10-17T06:15:25.976Z,80.16
2022-10-17T06:16:27.477Z,79.97
2022-10-17T06:17:30.302Z,79.80
2022-10-17T06:18:31.796Z,79.98
2022-10-17T06:19:33.318Z,79.87
2022-10-17T06:20:34.850Z,79.64
2022-10-17T06:21:37.824Z,80.11
2022-10-17T06:22:39.201Z,80.00
2022-10-17T06:23:41.006Z,80.14
2022-10-17T06:24:42.661Z,80.36
2022-10-17T06:25:44.515Z,80.26
2022-10-17T06:26:47.585Z,80.67
2022-10-17T06:27:49.063Z,80.21
2022-10-17T06:28:50.640Z,80.48
2022-10-17T06:29:52.178Z,80.70
2022-10-17T06:30:53.609Z,80.02
2022-10-17T06:31:55.153Z,79.87
2022-10-17T06:32:56.806Z,79.91
2022-10-17T06:33:58.559Z,79.70
2022-10-17T06:35:00.133Z,80.33
2022-10-17T06:36:01.971Z,80.37
2022-10-17T06:37:03.407Z,80.19
2022-10-17T06:38:05.067Z,80.12
2022-10-17T06:39:06.852Z,80.24
2022-10-17T06:40:10.386Z,80.27
2022-10-17T06:41:18.262Z,80.33
2022-10-17T06:42:19.682Z,80.39
2022-10-17T06:43:25.570Z,80.22
2022-10-17T06:44:32.109Z,80.43
2022-10-17T06:45:33.581Z,80.42
2022-10-17T06:46:35.068Z,80.66
2022-10-17T06:47:37.290Z,80.41
2022-10-17T06:48:39.249Z,80.55
2022-10-17T06:49:40.743Z,80.49
2022-10-17T06:50:42.206Z,80.58
2022-10-17T06:51:43.676Z,80.28
2022-10-17T06:52:45.160Z,80.77
2022-10-17T06:53:47.200Z,80.52
2022-10-17T06:54:48.762Z,80.67
2022-10-17T06:55:55.237Z,80.76
2022-10-17T06:56:57.010Z,80.62
2022-10-17T06:57:58.579Z,80.85
2022-10-17T06:59:00.334Z,80.53
2022-10-17T07:00:02.239Z,80.46
2022-10-17T07:02:15.766Z,80.82
2022-10-17T07:03:17.516Z,80.83
2022-10-17T07:04:19.019Z,80.81
2022-10-17T07:05:20.532Z,80.92
2022-10-17T07:06:24.378Z,80.63
2022-10-17T07:07:25.940Z,81.11
2022-10-17T07:08:28.197Z,81.00
2022-10-17T07:09:33.030Z,80.73
2022-10-17T07:10:38.257Z,80.92
2022-10-17T07:11:40.232Z,80.87
2022-10-17T07:12:42.279Z,81.04
2022-10-17T07:13:44.155Z,81.26
2022-10-17T07:14:47.307Z,81.13
2022-10-17T07:15:48.935Z,80.89
2022-10-17T07:16:50.504Z,81.31
2022-10-17T07:17:51.946Z,81.63
2022-10-17T07:18:54.394Z,81.48
2022-10-17T07:19:55.821Z,81.70
2022-10-17T07:20:57.276Z,82.21
2022-10-17T07:21:58.704Z,81.71
2022-10-17T07:23:00.649Z,81.77
2022-10-17T07:24:02.152Z,81.71
2022-10-17T07:25:06.594Z,82.20
2022-10-17T07:26:10.899Z,82.08
2022-10-17T07:27:13.674Z,82.32
2022-10-17T07:28:16.095Z,82.37
2022-10-17T07:29:17.635Z,82.50
2022-10-17T07:30:19.821Z,82.48
2022-10-17T07:31:23.004Z,82.28
2022-10-17T07:32:24.437Z,82.50
2022-10-17T07:33:26.179Z,82.47
2022-10-17T07:34:30.705Z,82.54
2022-10-17T07:35:32.363Z,82.54
2022-10-17T07:36:33.802Z,82.48
2022-10-17T07:37:35.852Z,82.57
2022-10-17T07:38:38.167Z,82.28
2022-10-17T07:39:40.059Z,82.29
2022-10-17T07:40:41.459Z,82.24
2022-10-17T07:41:42.929Z,82.26
2022-10-17T07:42:44.662Z,82.18
2022-10-17T07:43:46.542Z,82.19
2022-10-17T07:44:48.091Z,81.99
2022-10-17T07:45:49.581Z,81.73
2022-10-17T07:46:51.039Z,81.67
2022-10-17T07:47:56.341Z,80.67
2022-10-17T07:48:57.819Z,77.84
2022-10-17T07:49:59.239Z,73.24
2022-10-17T07:51:08.529Z,68.42
2022-10-17T07:52:13.972Z,65.04
2022-10-17T07:53:15.894Z,63.53
2022-10-17T07:54:17.344Z,63.78
2022-10-17T07:55:18.771Z,64.64
2022-10-17T07:56:24.527Z,65.58
2022-10-17T07:57:26.259Z,67.05
2022-10-17T07:58:28.769Z,68.27
2022-10-17T07:59:30.255Z,69.42
2022-10-17T08:00:31.727Z,70.46
2022-10-17T08:01:33.178Z,71.25
2022-10-17T08:02:34.970Z,72.25
2022-10-17T08:03:36.743Z,72.97
2022-10-17T08:04:39.103Z,73.22
2022-10-17T08:05:40.637Z,74.10
2022-10-17T08:06:42.114Z,74.80
2022-10-17T08:07:43.933Z,74.96
2022-10-17T08:08:45.603Z,75.33
2022-10-17T08:09:47.394Z,75.80
2022-10-17T08:10:48.816Z,76.33
2022-10-17T08:11:50.240Z,76.90
2022-10-17T08:12:51.692Z,76.66
2022-10-17T08:13:53.366Z,76.77
2022-10-17T08:14:54.797Z,76.91
2022-10-17T08:16:02.460Z,76.99
2022-10-17T08:17:04.508Z,77.34
2022-10-17T08:18:05.939Z,77.41
2022-10-17T08:20:15.770Z,77.80
2022-10-17T08:21:17.248Z,77.73
2022-10-17T08:22:21.422Z,77.77
2022-10-17T08:23:24.620Z,78.23
2022-10-17T08:24:26.139Z,78.25
2022-10-17T08:25:27.651Z,78.04
2022-10-17T08:26:30.621Z,78.08
2022-10-17T08:27:36.184Z,77.90
2022-10-17T08:28:39.383Z,78.07
2022-10-17T08:29:41.255Z,77.79
2022-10-17T08:30:42.706Z,77.37
2022-10-17T08:31:47.722Z,77.76
2022-10-17T08:32:49.861Z,77.67
2022-10-17T08:33:51.364Z,77.31
2022-10-17T08:34:53.765Z,76.88
2022-10-17T08:35:55.347Z,75.91
2022-10-17T08:36:56.863Z,74.45
2022-10-17T08:38:01.762Z,72.97
2022-10-17T08:39:03.812Z,71.94
2022-10-17T08:40:06.209Z,71.29
2022-10-17T08:41:15.337Z,70.79
2022-10-17T08:42:38.847Z,70.89
2022-10-17T08:43:51.827Z,71.16
2022-10-17T08:45:17.682Z,71.15
2022-10-17T08:46:20.194Z,70.81
2022-10-17T08:47:29.668Z,69.93
2022-10-17T08:48:42.618Z,68.09
2022-10-17T08:49:52.508Z,66.27
2022-10-17T08:51:02.094Z,64.30
2022-10-17T08:52:19.944Z,61.95
2022-10-17T08:53:29.798Z,60.01
2022-10-17T08:54:43.319Z,57.95
2022-10-17T08:55:48.066Z,57.32
2022-10-17T08:56:51.128Z,57.13
2022-10-17T08:57:53.320Z,58.45
2022-10-17T08:58:54.799Z,59.95
2022-10-17T08:59:57.115Z,61.77
2022-10-17T09:01:19.530Z,64.07
2022-10-17T09:02:40.433Z,64.84
2022-10-17T09:04:02.651Z,66.89
2022-10-17T09:05:27.368Z,67.38
2022-10-17T09:06:39.491Z,67.38
2022-10-17T09:07:55.843Z,67.98
2022-10-17T09:09:26.852Z,67.40
2022-10-17T09:10:42.903Z,67.20
2022-10-17T09:12:11.274Z,68.39
2022-10-17T09:13:21.561Z,68.20
2022-10-17T09:14:48.146Z,68.54
2022-10-17T09:16:07.705Z,68.37
2022-10-17T09:17:31.748Z,68.40
2022-10-17T09:18:37.961Z,68.58
2022-10-17T09:19:46.343Z,68.41
2022-10-17T09:20:53.246Z,68.33
2022-10-17T09:21:57.618Z,68.09
2022-10-17T09:23:04.492Z,67.98
2022-10-17T09:24:16.118Z,67.66
2022-10-17T09:25:20.129Z,67.52
2022-10-17T09:26:22.368Z,66.48
2022-10-17T09:27:28.158Z,65.03
2022-10-17T09:28:34.458Z,62.48
2022-10-17T09:29:40.163Z,60.73
2022-10-17T09:30:47.446Z,59.47
2022-10-17T09:33:28.656Z,59.99
2022-10-17T09:34:37.849Z,60.25
2022-10-17T09:35:41.864Z,60.52
2022-10-17T09:36:44.069Z,59.97
2022-10-17T09:37:46.212Z,59.56
2022-10-17T09:38:59.766Z,60.52
2022-10-17T09:40:01.613Z,60.96
2022-10-17T09:41:04.699Z,61.25
2022-10-17T09:42:14.487Z,61.26
2022-10-17T09:43:16.314Z,60.85
2022-10-17T09:44:33.479Z,62.69
2022-10-17T09:45:47.084Z,62.88
2022-10-17T09:47:09.504Z,63.61
2022-10-17T09:48:25.781Z,64.71
2022-10-17T09:49:33.237Z,64.54
2022-10-17T09:50:35.109Z,64.36
2022-10-17T09:51:38.692Z,64.10
2022-10-17T09:52:48.593Z,65.04
2022-10-17T09:53:56.799Z,65.11
2022-10-17T09:55:20.190Z,65.66
2022-10-17T09:56:21.668Z,65.95
2022-10-17T09:57:23.329Z,65.43
2022-10-17T09:58:40.512Z,65.33
2022-10-17T09:59:57.177Z,65.15
2022-10-17T10:01:19.636Z,64.13
2022-10-17T10:02:26.386Z,63.75
2022-10-17T10:03:27.997Z,62.40
2022-10-17T10:04:30.313Z,61.90
2022-10-17T10:05:31.993Z,61.22
2022-10-17T10:06:33.771Z,60.90
2022-10-17T10:07:38.978Z,61.02
2022-10-17T10:08:54.962Z,59.59
2022-10-17T10:09:57.897Z,59.83
2022-10-17T10:11:05.319Z,59.12
2022-10-17T10:12:17.902Z,59.83
2022-10-17T10:13:22.908Z,61.43
2022-10-17T10:14:35.822Z,61.26
2022-10-17T10:15:41.116Z,61.36
2022-10-17T10:16:44.944Z,61.47
2022-10-17T10:17:46.475Z,61.80
2022-10-17T10:18:50.869Z,61.00
2022-10-17T10:19:53.076Z,60.85
2022-10-17T10:21:20.010Z,61.22
2022-10-17T10:22:25.761Z,61.34
2022-10-17T10:23:27.499Z,61.94
2022-10-17T10:24:31.099Z,62.61
2022-10-17T10:25:33.900Z,62.05
2022-10-17T10:26:48.774Z,62.10
2022-10-17T10:27:50.516Z,62.62
2022-10-17T10:29:20.461Z,62.70
2022-10-17T10:30:30.364Z,62.90
2022-10-17T10:31:39.864Z,63.01
2022-10-17T10:32:47.242Z,62.70
2022-10-17T10:33:50.934Z,62.85
2022-10-17T10:35:00.892Z,62.28
2022-10-17T10:36:07.712Z,61.93
2022-10-17T10:37:40.152Z,61.47
2022-10-17T10:38:43.363Z,60.91
2022-10-17T10:39:54.887Z,60.39
2022-10-17T10:41:01.810Z,60.41
2022-10-17T10:42:06.024Z,61.14
2022-10-17T10:43:09.136Z,60.74
2022-10-17T10:44:15.453Z,60.79
2022-10-17T10:45:43.190Z,60.74
2022-10-17T10:46:42.692Z,60.18
2022-10-17T10:48:24.301Z,60.46
2022-10-17T10:49:32.589Z,60.61
2022-10-17T10:50:45.192Z,60.82
2022-10-17T10:51:49.500Z,61.33
2022-10-17T10:53:09.215Z,61.19
2022-10-17T10:54:17.940Z,61.05
2022-10-17T10:55:19.400Z,60.93
2022-10-17T10:56:26.681Z,60.92
2022-10-17T10:57:33.606Z,60.64
2022-10-17T10:58:37.801Z,60.41
2022-10-17T10:59:46.577Z,60.74
2022-10-17T11:00:49.979Z,60.44
2022-10-17T11:02:00.854Z,60.56
2022-10-17T11:03:45.920Z,59.16
2022-10-17T11:05:16.166Z,59.25
2022-10-17T11:06:23.857Z,59.94
2022-10-17T11:07:37.992Z,60.35
2022-10-17T11:08:59.262Z,58.93
2022-10-17T11:10:15.423Z,58.79
2022-10-17T11:11:39.299Z,58.29
2022-10-17T11:12:55.010Z,58.20
2022-10-17T11:14:05.368Z,58.66
2022-10-17T11:15:31.761Z,58.12
2022-10-17T11:16:42.068Z,58.61
2022-10-17T11:18:10.963Z,58.87
2022-10-17T11:19:24.382Z,59.40
2022-10-17T11:20:51.614Z,59.16
2022-10-17T11:22:01.800Z,59.07
2022-10-17T11:23:28.340Z,58.88
2022-10-17T11:24:40.066Z,58.23
2022-10-17T11:25:42.152Z,58.15
2022-10-17T11:27:01.237Z,58.21
2022-10-17T11:28:10.524Z,58.22
2022-10-17T11:29:13.262Z,57.67
2022-10-17T11:30:16.020Z,58.52
2022-10-17T11:31:18.456Z,59.09
2022-10-17T11:32:31.433Z,58.41
2022-10-17T11:33:48.854Z,59.43
2022-10-17T11:34:59.927Z,59.19
2022-10-17T11:36:07.134Z,58.64
2022-10-17T11:37:18.697Z,58.25
2022-10-17T11:38:34.930Z,58.08
2022-10-17T11:39:49.773Z,57.45
2022-10-17T11:40:55.212Z,56.93
2022-10-17T11:42:04.279Z,57.11
2022-10-17T11:43:14.351Z,57.68
2022-10-17T11:44:38.367Z,58.71
2022-10-17T11:45:44.566Z,58.19
2022-10-17T11:46:51.172Z,58.04
2022-10-17T11:47:59.857Z,58.66
2022-10-17T11:49:20.591Z,58.60
2022-10-17T11:52:03.137Z,58.13
2022-10-17T11:53:27.629Z,58.57
2022-10-17T11:54:46.100Z,59.15
2022-10-17T11:55:48.237Z,59.54
2022-10-17T11:57:10.717Z,59.45
2022-10-17T11:58:48.199Z,58.86
2022-10-17T12:00:18.600Z,59.00
2022-10-17T12:01:43.101Z,58.71
2022-10-17T12:02:58.233Z,58.71
2022-10-17T12:04:02.681Z,58.83
2022-10-17T12:05:17.488Z,59.23
2022-10-17T12:06:35.244Z,59.33
2022-10-17T12:07:49.333Z,59.47
2022-10-17T12:08:58.963Z,59.15
2022-10-17T12:10:26.242Z,58.48
2022-10-17T12:11:28.251Z,58.74
2022-10-17T12:12:33.153Z,58.60
2022-10-17T12:13:36.175Z,58.70
2022-10-17T12:14:39.448Z,57.70
2022-10-17T12:15:44.699Z,57.54
2022-10-17T12:16:48.070Z,57.40
2022-10-17T12:18:03.958Z,57.56
2022-10-17T12:19:21.379Z,58.35
2022-10-17T12:20:25.841Z,57.54
2022-10-17T12:21:31.301Z,58.22
2022-10-17T12:22:33.768Z,58.79
2022-10-17T12:23:38.609Z,57.36
2022-10-17T12:24:45.628Z,57.05
2022-10-17T12:26:01.129Z,58.03
2022-10-17T12:27:46.040Z,58.48
2022-10-17T12:28:48.264Z,58.17
2022-10-17T12:29:50.777Z,57.18
2022-10-17T12:31:02.155Z,57.27
2022-10-17T12:32:12.316Z,56.96
2022-10-17T12:33:23.540Z,56.28
2022-10-17T12:34:25.103Z,55.65
2022-10-17T12:35:28.031Z,55.77
2022-10-17T12:36:29.438Z,56.01
2022-10-17T12:37:43.411Z,56.75
2022-10-17T12:38:49.903Z,57.75
2022-10-17T12:39:51.752Z,58.23
2022-10-17T12:40:55.769Z,59.20
2022-10-17T12:41:57.202Z,58.14
2022-10-17T12:42:58.636Z,58.15
2022-10-17T12:44:00.464Z,57.93
2022-10-17T12:45:02.078Z,58.29
2022-10-17T12:46:04.843Z,58.71
2022-10-17T12:47:07.933Z,59.22
2022-10-17T12:48:10.307Z,58.44
2022-10-17T12:49:39.847Z,57.88
2022-10-17T12:51:34.323Z,57.54
2022-10-17T12:52:32.528Z,57.40
2022-10-17T12:53:57.228Z,56.91
2022-10-17T12:55:13.475Z,56.74
2022-10-17T12:56:40.483Z,56.64
2022-10-17T12:58:00.313Z,56.79
2022-10-17T12:59:09.058Z,56.67
2022-10-17T13:01:11.851Z,56.59
2022-10-17T13:02:25.313Z,56.59
2022-10-17T13:03:31.156Z,56.27
2022-10-17T13:04:36.446Z,55.84
2022-10-17T13:05:41.884Z,56.16
2022-10-17T13:06:54.278Z,57.13
2022-10-17T13:07:59.983Z,56.88
2022-10-17T13:09:05.888Z,56.82
2022-10-17T13:10:18.782Z,56.70
2022-10-17T13:11:26.893Z,56.17
2022-10-17T13:12:28.788Z,55.96
2022-10-17T13:13:52.381Z,55.75
2022-10-17T13:14:54.972Z,55.36
2022-10-17T13:15:56.495Z,54.74
2022-10-17T13:16:59.197Z,55.05
2022-10-17T13:18:01.433Z,54.73
2022-10-17T13:19:12.544Z,53.89
2022-10-17T13:20:25.609Z,54.37
2022-10-17T13:21:30.640Z,53.49
2022-10-17T13:22:33.045Z,52.94
2022-10-17T13:23:36.751Z,52.13
2022-10-17T13:24:41.001Z,52.03
2022-10-17T13:25:42.476Z,51.95
2022-10-17T13:26:45.835Z,51.56
2022-10-17T13:27:49.263Z,51.22
2022-10-17T13:30:31.889Z,49.50
2022-10-17T13:31:36.090Z,49.35
2022-10-17T13:32:39.623Z,48.19
2022-10-17T13:33:42.319Z,48.19
2022-10-17T13:34:43.934Z,47.13
2022-10-17T13:35:59.959Z,47.17
2022-10-17T13:37:05.812Z,46.84
2022-10-17T13:38:10.322Z,47.71
2022-10-17T13:39:17.251Z,49.69
2022-10-17T13:40:50.168Z,49.45
2022-10-17T13:41:53.436Z,48.41
2022-10-17T13:42:57.643Z,50.27
2022-10-17T13:43:59.401Z,51.38
2022-10-17T13:45:00.847Z,50.53
2022-10-17T13:46:25.571Z,49.33
2022-10-17T13:47:30.526Z,48.24
2022-10-17T13:48:36.985Z,47.70
2022-10-17T13:49:42.949Z,47.26
2022-10-17T13:50:50.224Z,47.69
2022-10-17T13:51:53.858Z,47.10
2022-10-17T13:53:26.595Z,46.76
2022-10-17T13:54:41.469Z,46.36
2022-10-17T13:56:09.532Z,46.35
2022-10-17T13:57:23.699Z,46.96
2022-10-17T13:58:26.661Z,47.86
2022-10-17T13:59:36.568Z,47.72
2022-10-17T14:00:38.186Z,47.40
2022-10-17T14:01:39.738Z,46.53
2022-10-17T14:02:41.627Z,46.37
2022-10-17T14:03:49.016Z,45.71
2022-10-17T14:05:17.227Z,45.75
2022-10-17T14:06:23.498Z,45.96
2022-10-17T14:07:46.140Z,45.63
2022-10-17T14:09:06.939Z,45.10
2022-10-17T14:10:19.400Z,45.00
2022-10-17T14:11:26.176Z,45.80
2022-10-17T14:12:27.745Z,46.06
2022-10-17T14:13:34.047Z,46.00
2022-10-17T14:14:51.980Z,45.96
2022-10-17T14:16:01.428Z,45.34
2022-10-17T14:17:02.926Z,46.63
2022-10-17T14:18:08.170Z,45.65
2022-10-17T14:19:29.262Z,44.50
2022-10-17T14:21:19.452Z,44.67
2022-10-17T14:21:56.982Z,45.51
2022-10-17T14:24:27.599Z,45.33
2022-10-17T14:25:35.961Z,45.58
2022-10-17T14:26:58.788Z,45.35
2022-10-17T14:28:12.679Z,45.60
2022-10-17T14:29:31.873Z,45.78
2022-10-17T14:30:55.620Z,47.60
2022-10-17T14:32:06.070Z,48.16